createdAt,value
2019-01-21T00:01:15.021Z,7.00
2019-01-21T00:03:45.262Z,7.10
2019-01-21T00:06:15.312Z,7.10
2019-01-21T00:08:45.302Z,7.10
2019-01-21T00:11:15.265Z,7.20
2019-01-21T00:13:45.240Z,7.20
2019-01-21T00:16:15.598Z,7.20
2019-01-21T00:18:45.773Z,7.20
2019-01-21T00:21:15.715Z,7.10
2019-01-21T00:23:45.791Z,7.10
2019-01-21T00:26:15.537Z,7.10
2019-01-21T00:28:45.216Z,7.20
2019-01-21T00:31:15.275Z,7.20
2019-01-21T00:33:45.457Z,7.20
2019-01-21T00:36:15.993Z,7.20
2019-01-21T00:38:45.993Z,7.10
2019-01-21T00:41:16.480Z,7.20
2019-01-21T00:43:46.660Z,7.30
2019-01-21T00:46:17.390Z,7.30
2019-01-21T00:48:47.285Z,7.30
2019-01-21T00:51:17.348Z,7.20
2019-01-21T00:53:47.424Z,7.30
2019-01-21T00:56:17.595Z,7.20
2019-01-21T00:58:47.561Z,6.90
2019-01-21T01:01:17.504Z,6.70
2019-01-21T01:03:47.401Z,7.00
2019-01-21T01:06:17.823Z,7.10
2019-01-21T01:08:48.656Z,7.30
2019-01-21T01:11:19.379Z,7.30
2019-01-21T01:13:49.914Z,7.40
2019-01-21T01:16:20.629Z,7.40
2019-01-21T01:18:51.032Z,7.30
2019-01-21T01:21:21.506Z,7.10
2019-01-21T01:23:53.748Z,7.20
2019-01-21T01:26:24.212Z,7.30
2019-01-21T01:28:54.272Z,7.40
2019-01-21T01:31:24.647Z,7.40
2019-01-21T01:33:56.205Z,7.40
2019-01-21T01:36:26.067Z,7.40
2019-01-21T01:38:56.237Z,7.40
2019-01-21T01:41:26.529Z,7.40
2019-01-21T01:43:56.461Z,7.40
2019-01-21T01:46:26.544Z,7.50
2019-01-21T01:48:57.225Z,7.40
2019-01-21T01:51:27.304Z,7.50
2019-01-21T01:53:57.354Z,7.30
2019-01-21T01:56:27.544Z,7.40
2019-01-21T01:58:57.772Z,7.40
2019-01-21T02:01:28.083Z,7.50
2019-01-21T02:03:58.152Z,7.50
2019-01-21T02:06:28.228Z,7.50
2019-01-21T02:08:58.283Z,7.50
2019-01-21T02:11:28.361Z,7.50
2019-01-21T02:13:58.622Z,7.50
2019-01-21T02:16:28.683Z,7.50
2019-01-21T02:18:58.764Z,7.40
2019-01-21T02:21:30.254Z,7.50
2019-01-21T02:24:05.860Z,7.50
2019-01-21T02:26:42.694Z,7.50
2019-01-21T02:29:34.730Z,7.50
2019-01-21T02:32:47.440Z,7.50
2019-01-21T02:35:28.867Z,7.50
2019-01-21T02:38:28.441Z,7.60
2019-01-21T02:41:32.596Z,7.60
2019-01-21T02:44:45.992Z,7.60
2019-01-21T02:47:50.179Z,7.40
2019-01-21T02:50:51.123Z,7.50
2019-01-21T02:54:03.244Z,7.50
2019-01-21T02:56:51.240Z,7.20
2019-01-21T03:00:04.290Z,7.10
2019-01-21T03:03:14.973Z,7.10
2019-01-21T03:06:07.093Z,7.40
2019-01-21T03:09:01.994Z,7.30
2019-01-21T03:11:59.521Z,7.30
2019-01-21T03:14:50.922Z,7.50
2019-01-21T03:17:49.565Z,7.60
2019-01-21T03:20:44.485Z,7.60
2019-01-21T03:24:14.505Z,7.60
2019-01-21T03:27:13.788Z,7.60
2019-01-21T03:30:37.223Z,7.20
2019-01-21T03:33:37.034Z,6.80
2019-01-21T03:36:31.762Z,6.90
2019-01-21T03:39:54.333Z,6.90
2019-01-21T03:42:52.341Z,7.20
2019-01-21T03:45:58.487Z,7.30
2019-01-21T03:48:56.439Z,7.40
2019-01-21T03:52:03.272Z,7.30
2019-01-21T03:54:40.605Z,7.40
2019-01-21T03:57:59.445Z,7.30
2019-01-21T04:01:13.528Z,7.10
2019-01-21T04:04:26.929Z,7.10
2019-01-21T04:07:13.085Z,7.50
2019-01-21T04:10:12.853Z,7.60
2019-01-21T04:13:19.922Z,7.70
2019-01-21T04:16:13.361Z,7.50
2019-01-21T04:19:13.615Z,7.50
2019-01-21T04:22:00.680Z,7.60
2019-01-21T04:25:10.585Z,7.60
2019-01-21T04:28:18.448Z,7.40
2019-01-21T04:31:28.057Z,7.60
2019-01-21T04:34:15.005Z,7.60
2019-01-21T04:37:31.911Z,7.40
2019-01-21T04:41:00.957Z,7.60
2019-01-21T04:43:55.857Z,7.60
2019-01-21T04:47:06.554Z,7.70
2019-01-21T04:50:25.415Z,7.60
2019-01-21T04:53:07.589Z,7.70
2019-01-21T04:56:14.192Z,7.60
2019-01-21T04:59:14.485Z,7.60
2019-01-21T05:02:12.974Z,7.60
2019-01-21T05:05:17.607Z,7.70
2019-01-21T05:08:24.100Z,7.70
2019-01-21T05:11:24.261Z,7.60
2019-01-21T05:14:44.023Z,7.60
2019-01-21T05:17:48.223Z,7.20
2019-01-21T05:20:48.041Z,7.00
2019-01-21T05:24:01.199Z,7.40
2019-01-21T05:27:04.644Z,7.60
2019-01-21T05:30:17.674Z,7.70
2019-01-21T05:33:25.094Z,7.60
2019-01-21T05:36:09.207Z,7.40
2019-01-21T05:39:11.113Z,7.60
2019-01-21T05:42:27.778Z,7.70
2019-01-21T05:45:23.400Z,7.30
2019-01-21T05:48:11.325Z,6.90
2019-01-21T05:51:26.097Z,6.70
2019-01-21T05:54:39.764Z,6.70
2019-01-21T05:57:55.650Z,6.70
2019-01-21T06:01:05.841Z,6.80
2019-01-21T06:04:01.751Z,6.70
2019-01-21T06:07:30.668Z,6.80
2019-01-21T06:10:17.982Z,6.90
2019-01-21T06:13:15.740Z,7.50
2019-01-21T06:16:28.251Z,7.60
2019-01-21T06:19:39.696Z,7.30
2019-01-21T06:22:56.302Z,7.60
2019-01-21T06:26:04.204Z,7.70
2019-01-21T06:29:12.547Z,7.70
2019-01-21T06:32:11.053Z,7.80
2019-01-21T06:35:24.854Z,7.80
2019-01-21T06:38:22.982Z,7.50
2019-01-21T06:41:55.123Z,7.00
2019-01-21T06:44:52.560Z,6.90
2019-01-21T06:48:02.165Z,7.20
2019-01-21T06:51:21.773Z,7.60
2019-01-21T06:54:25.996Z,7.10
2019-01-21T06:57:58.643Z,7.10
2019-01-21T07:01:27.480Z,7.10
2019-01-21T07:04:32.573Z,7.60
2019-01-21T07:08:01.747Z,7.80
2019-01-21T07:11:09.316Z,7.30
2019-01-21T07:14:02.331Z,7.70
2019-01-21T07:17:22.708Z,7.80
2019-01-21T07:20:39.507Z,7.50
2019-01-21T07:23:44.853Z,7.50
2019-01-21T07:27:13.781Z,7.30
2019-01-21T07:30:13.536Z,7.10
2019-01-21T07:33:25.462Z,7.50
2019-01-21T07:36:36.382Z,7.50
2019-01-21T07:39:55.201Z,7.20
2019-01-21T07:43:09.924Z,7.10
2019-01-21T07:46:02.341Z,7.60
2019-01-21T07:49:04.717Z,7.70
2019-01-21T07:52:19.793Z,7.20
2019-01-21T07:55:07.052Z,7.20
2019-01-21T07:58:29.180Z,6.90
2019-01-21T08:01:30.061Z,6.90
2019-01-21T08:04:55.452Z,6.80
2019-01-21T08:08:12.324Z,6.90
2019-01-21T08:11:17.970Z,7.30
2019-01-21T08:14:21.812Z,7.60
2019-01-21T08:17:53.518Z,7.50
2019-01-21T08:20:46.248Z,7.40
2019-01-21T08:23:50.745Z,7.30
2019-01-21T08:26:50.533Z,7.80
2019-01-21T08:29:50.072Z,7.70
2019-01-21T08:32:53.328Z,7.90
2019-01-21T08:35:52.886Z,7.90
2019-01-21T08:39:08.836Z,8.00
2019-01-21T08:41:56.158Z,8.00
2019-01-21T08:45:34.092Z,7.50
2019-01-21T08:48:34.402Z,7.70
2019-01-21T08:51:18.125Z,8.00
2019-01-21T08:54:17.944Z,7.90
2019-01-21T08:57:41.088Z,7.60
2019-01-21T09:01:00.661Z,7.50
2019-01-21T09:04:26.715Z,7.80
2019-01-21T09:07:23.901Z,7.20
2019-01-21T09:10:37.485Z,6.90
2019-01-21T09:13:43.093Z,7.10
2019-01-21T09:16:47.766Z,6.20
2019-01-21T09:19:42.165Z,6.60
2019-01-21T09:22:37.415Z,6.50
2019-01-21T09:25:36.349Z,7.20
2019-01-21T09:28:52.772Z,6.00
2019-01-21T09:31:58.361Z,5.90
2019-01-21T09:35:01.005Z,6.90
2019-01-21T09:38:11.036Z,6.00
2019-01-21T09:41:21.769Z,4.70
2019-01-21T09:44:23.086Z,6.10
2019-01-21T09:46:51.744Z,6.10
2019-01-21T09:49:19.739Z,6.90
2019-01-21T09:52:08.624Z,7.30
2019-01-21T09:54:39.936Z,7.70
2019-01-21T09:57:21.502Z,8.00
2019-01-21T10:02:38.540Z,8.20
2019-01-21T10:05:16.154Z,9.00
2019-01-21T10:08:16.724Z,9.20
2019-01-21T10:11:25.913Z,8.60
2019-01-21T10:14:44.351Z,8.80
2019-01-21T10:20:46.445Z,8.70
2019-01-21T10:23:49.232Z,7.40
2019-01-21T10:26:54.264Z,7.80
2019-01-21T10:29:49.279Z,7.50
2019-01-21T10:33:00.060Z,8.10
2019-01-21T10:36:01.358Z,9.20
2019-01-21T10:39:18.539Z,9.30
2019-01-21T10:42:32.671Z,5.70
2019-01-21T10:45:53.087Z,7.00
2019-01-21T10:49:01.484Z,7.70
2019-01-21T10:51:41.748Z,7.80
2019-01-21T10:54:49.176Z,7.70
2019-01-21T10:57:55.621Z,6.50
2019-01-21T11:00:50.592Z,6.80
2019-01-21T11:03:43.431Z,6.20
2019-01-21T11:06:32.735Z,6.40
2019-01-21T11:09:33.304Z,5.40
2019-01-21T11:12:42.103Z,6.70
2019-01-21T11:15:40.733Z,6.70
2019-01-21T11:18:21.630Z,6.80
2019-01-21T11:21:27.515Z,6.90
2019-01-21T11:24:34.498Z,7.00
2019-01-21T11:27:12.589Z,7.60
2019-01-21T11:30:38.028Z,7.00
2019-01-21T11:33:41.933Z,5.50
2019-01-21T11:36:59.539Z,4.30
2019-01-21T11:40:12.637Z,6.40
2019-01-21T11:43:14.144Z,5.40
2019-01-21T11:46:40.093Z,5.90
2019-01-21T11:49:56.063Z,5.00
2019-01-21T11:53:10.696Z,7.30
2019-01-21T11:56:09.132Z,6.40
2019-01-21T11:59:12.788Z,8.10
2019-01-21T12:02:29.626Z,4.40
2019-01-21T12:05:37.535Z,5.50
2019-01-21T12:08:18.800Z,6.40
2019-01-21T12:11:18.477Z,7.40
2019-01-21T12:14:28.965Z,7.00
2019-01-21T12:17:22.301Z,6.70
2019-01-21T12:20:44.850Z,6.70
2019-01-21T12:23:38.492Z,7.50
2019-01-21T12:26:48.665Z,6.20
2019-01-21T12:29:36.353Z,4.30
2019-01-21T12:32:46.489Z,6.00
2019-01-21T12:35:55.854Z,6.30
2019-01-21T12:39:22.288Z,5.60
2019-01-21T12:42:02.008Z,5.60
2019-01-21T12:44:52.133Z,4.70
2019-01-21T12:47:40.721Z,5.50
2019-01-21T12:50:51.521Z,6.20
2019-01-21T12:53:45.245Z,5.40
2019-01-21T12:56:42.170Z,4.90
2019-01-21T12:59:46.873Z,4.20
2019-01-21T13:03:15.868Z,4.50
2019-01-21T13:06:43.156Z,6.20
2019-01-21T13:09:55.669Z,6.70
2019-01-21T13:13:01.515Z,7.90
2019-01-21T13:15:44.137Z,7.40
2019-01-21T13:18:59.801Z,8.00
2019-01-21T13:22:21.833Z,7.90
2019-01-21T13:25:13.584Z,7.20
2019-01-21T13:28:19.878Z,8.40
2019-01-21T13:31:48.925Z,8.40
2019-01-21T13:34:37.116Z,8.50
2019-01-21T13:37:40.565Z,8.20
2019-01-21T13:40:38.741Z,8.40
2019-01-21T13:43:35.505Z,8.50
2019-01-21T13:46:34.176Z,9.00
2019-01-21T13:49:39.220Z,8.10
2019-01-21T13:53:02.277Z,8.60
2019-01-21T13:55:52.113Z,7.50
2019-01-21T13:58:59.674Z,6.70
2019-01-21T14:01:51.082Z,6.60
2019-01-21T14:04:49.148Z,7.20
2019-01-21T14:07:52.349Z,7.50
2019-01-21T14:11:12.629Z,7.40
2019-01-21T14:14:11.953Z,8.00
2019-01-21T14:17:13.692Z,8.00
2019-01-21T14:19:56.575Z,6.80
2019-01-21T14:23:00.452Z,7.40
2019-01-21T14:26:05.430Z,7.90
2019-01-21T14:29:18.712Z,7.70
2019-01-21T14:32:28.668Z,8.50
2019-01-21T14:35:53.671Z,8.40
2019-01-21T14:39:15.325Z,9.00
2019-01-21T14:42:26.045Z,8.90
2019-01-21T14:45:38.957Z,8.80
2019-01-21T14:48:55.503Z,8.90
2019-01-21T14:52:17.147Z,9.40
2019-01-21T14:55:18.296Z,9.40
2019-01-21T14:58:03.617Z,9.60
2019-01-21T15:00:59.217Z,9.70
2019-01-21T15:04:18.770Z,9.70
2019-01-21T15:07:29.300Z,9.70
2019-01-21T15:10:43.144Z,9.30
2019-01-21T15:13:49.952Z,9.40
2019-01-21T15:17:01.266Z,9.40
2019-01-21T15:23:02.219Z,9.10
2019-01-21T15:26:15.842Z,9.10
2019-01-21T15:29:19.861Z,9.40
2019-01-21T15:32:30.973Z,9.70
2019-01-21T15:35:51.001Z,9.90
2019-01-21T15:39:07.711Z,9.80
2019-01-21T15:42:09.155Z,9.90
2019-01-21T15:45:17.113Z,9.60
2019-01-21T15:48:21.224Z,9.70
2019-01-21T15:50:56.631Z,9.70
2019-01-21T15:54:00.882Z,9.30
2019-01-21T15:57:13.740Z,9.30
2019-01-21T16:00:39.697Z,9.60
2019-01-21T16:03:17.957Z,9.40
2019-01-21T16:06:02.452Z,9.70
2019-01-21T16:09:16.689Z,9.60
2019-01-21T16:12:15.652Z,9.90
2019-01-21T16:15:02.200Z,9.60
2019-01-21T16:17:48.963Z,9.50
2019-01-21T16:20:30.613Z,9.50
2019-01-21T16:23:37.438Z,9.50
2019-01-21T16:26:16.473Z,9.50
2019-01-21T16:29:11.677Z,9.50
2019-01-21T16:32:24.007Z,9.80
2019-01-21T16:35:21.977Z,9.90
2019-01-21T16:38:21.023Z,9.80
2019-01-21T16:41:43.652Z,9.80
2019-01-21T16:44:13.602Z,10.00
2019-01-21T16:46:43.695Z,10.00
2019-01-21T16:49:13.733Z,10.00
2019-01-21T16:51:43.701Z,9.70
2019-01-21T16:54:13.963Z,9.90
2019-01-21T16:56:43.950Z,10.00
2019-01-21T16:59:13.801Z,9.80
2019-01-21T17:01:43.781Z,9.90
2019-01-21T17:04:13.935Z,10.10
2019-01-21T17:06:43.908Z,9.80
2019-01-21T17:09:14.029Z,10.00
2019-01-21T17:11:43.840Z,9.70
2019-01-21T17:14:13.904Z,9.70
2019-01-21T17:16:43.886Z,9.90
2019-01-21T17:19:14.041Z,9.90
2019-01-21T17:21:44.005Z,9.80
2019-01-21T17:24:14.428Z,9.80
2019-01-21T17:26:45.068Z,9.90
2019-01-21T17:29:15.228Z,9.60
2019-01-21T17:31:45.315Z,9.50
2019-01-21T17:34:15.593Z,9.60
2019-01-21T17:36:45.633Z,9.70
2019-01-21T17:39:16.928Z,9.40
2019-01-21T17:41:47.194Z,9.40
2019-01-21T17:44:17.970Z,9.50
2019-01-21T17:46:48.137Z,9.60
2019-01-21T17:49:18.328Z,9.60
2019-01-21T17:51:48.309Z,9.70
2019-01-21T17:54:18.460Z,9.50
2019-01-21T17:56:48.420Z,9.50
2019-01-21T17:59:18.384Z,9.50
2019-01-21T18:01:48.373Z,9.80
2019-01-21T18:04:18.312Z,10.00
2019-01-21T18:06:48.191Z,10.00
2019-01-21T18:09:18.157Z,9.80
2019-01-21T18:11:48.009Z,9.90
2019-01-21T18:14:18.344Z,10.00
2019-01-21T18:16:48.295Z,10.20
2019-01-21T18:19:18.385Z,10.20
2019-01-21T18:21:48.341Z,10.10
2019-01-21T18:24:18.304Z,10.10
2019-01-21T18:26:48.371Z,9.70
2019-01-21T18:29:18.440Z,9.70
2019-01-21T18:31:49.168Z,9.80
2019-01-21T18:34:19.414Z,9.90
2019-01-21T18:36:49.232Z,10.10
2019-01-21T18:39:19.347Z,10.20
2019-01-21T18:41:49.302Z,10.30
2019-01-21T18:44:19.367Z,10.30
2019-01-21T18:46:49.642Z,10.20
2019-01-21T18:49:22.904Z,10.20
2019-01-21T18:51:51.420Z,10.20
2019-01-21T18:54:21.479Z,10.20
2019-01-21T18:56:51.608Z,10.20
2019-01-21T18:59:21.622Z,10.20
2019-01-21T19:01:51.568Z,10.20
2019-01-21T19:04:21.649Z,10.00
2019-01-21T19:06:51.913Z,9.90
2019-01-21T19:09:21.993Z,9.90
2019-01-21T19:11:52.048Z,9.90
2019-01-21T19:14:22.119Z,10.10
2019-01-21T19:16:54.013Z,10.10
2019-01-21T19:19:24.905Z,10.00
2019-01-21T19:21:55.313Z,10.10
2019-01-21T19:24:25.889Z,9.90
2019-01-21T19:26:56.621Z,10.10
2019-01-21T19:29:26.737Z,10.00
2019-01-21T19:31:56.877Z,10.10
2019-01-21T19:34:27.038Z,10.10
2019-01-21T19:36:57.248Z,9.90
2019-01-21T19:39:27.197Z,9.90
2019-01-21T19:41:57.390Z,9.70
2019-01-21T19:44:27.749Z,9.50
2019-01-21T19:46:57.930Z,9.40
2019-01-21T19:49:28.180Z,9.30
2019-01-21T19:52:00.371Z,9.30
2019-01-21T19:54:29.876Z,9.10
2019-01-21T19:56:59.826Z,9.20
2019-01-21T19:59:30.007Z,9.30
2019-01-21T20:02:00.181Z,9.40
2019-01-21T20:04:30.147Z,9.90
2019-01-21T20:07:00.308Z,9.90
2019-01-21T20:09:30.364Z,9.90
2019-01-21T20:12:00.348Z,10.10
2019-01-21T20:14:30.420Z,10.20
2019-01-21T20:17:00.585Z,10.00
2019-01-21T20:19:30.637Z,10.00
2019-01-21T20:22:07.045Z,10.00
2019-01-21T20:24:32.404Z,9.90
2019-01-21T20:27:03.063Z,9.60
2019-01-21T20:29:33.157Z,9.50
2019-01-21T20:32:03.132Z,9.70
2019-01-21T20:34:33.456Z,9.80
2019-01-21T20:37:03.492Z,9.70
2019-01-21T20:39:33.420Z,9.80
2019-01-21T20:42:03.513Z,10.00
2019-01-21T20:44:33.574Z,10.10
2019-01-21T20:47:03.768Z,10.10
2019-01-21T20:49:33.708Z,10.10
2019-01-21T20:52:03.999Z,10.10
2019-01-21T20:54:34.153Z,9.90
2019-01-21T20:57:04.351Z,9.60
2019-01-21T20:59:34.493Z,9.30
2019-01-21T21:02:04.671Z,9.20
2019-01-21T21:04:34.604Z,9.70
2019-01-21T21:07:04.801Z,9.80
2019-01-21T21:09:35.209Z,9.90
2019-01-21T21:12:05.441Z,10.10
2019-01-21T21:14:35.608Z,10.10
2019-01-21T21:17:05.699Z,9.80
2019-01-21T21:19:35.650Z,9.50
2019-01-21T21:22:06.424Z,9.30
2019-01-21T21:24:36.635Z,9.10
2019-01-21T21:27:06.782Z,9.20
2019-01-21T21:29:37.091Z,9.10
2019-01-21T21:32:07.357Z,9.20
2019-01-21T21:34:37.437Z,9.60
2019-01-21T21:37:08.014Z,9.40
2019-01-21T21:39:38.206Z,9.20
2019-01-21T21:42:08.356Z,9.10
2019-01-21T21:44:38.436Z,9.00
2019-01-21T21:47:08.941Z,9.00
2019-01-21T21:49:39.388Z,9.00
2019-01-21T21:52:09.644Z,9.20
2019-01-21T21:54:40.240Z,9.00
2019-01-21T21:57:10.379Z,9.10
2019-01-21T21:59:42.168Z,9.10
2019-01-21T22:02:12.364Z,9.10
2019-01-21T22:04:42.661Z,9.10
2019-01-21T22:07:13.167Z,9.60
2019-01-21T22:09:43.104Z,9.30
2019-01-21T22:12:13.259Z,9.20
2019-01-21T22:14:43.233Z,9.30
2019-01-21T22:17:13.284Z,9.20
2019-01-21T22:19:43.368Z,9.40
2019-01-21T22:22:13.221Z,9.40
2019-01-21T22:24:43.130Z,9.30
2019-01-21T22:27:13.164Z,9.30
2019-01-21T22:29:44.333Z,9.50
2019-01-21T22:32:14.301Z,9.30
2019-01-21T22:34:44.388Z,9.20
2019-01-21T22:37:14.234Z,9.20
2019-01-21T22:39:44.421Z,9.10
2019-01-21T22:42:14.724Z,9.20
2019-01-21T22:44:44.848Z,9.20
2019-01-21T22:47:15.125Z,9.00
2019-01-21T22:49:45.321Z,8.90
2019-01-21T22:52:15.357Z,8.80
2019-01-21T22:54:45.547Z,9.20
2019-01-21T22:57:15.587Z,9.00
2019-01-21T22:59:45.598Z,9.00
2019-01-21T23:02:15.828Z,8.90
2019-01-21T23:04:45.929Z,9.00
2019-01-21T23:07:16.289Z,9.00
2019-01-21T23:09:46.244Z,9.00
2019-01-21T23:12:16.624Z,9.10
2019-01-21T23:14:46.799Z,9.20
2019-01-21T23:17:16.915Z,9.10
2019-01-21T23:19:47.181Z,9.10
2019-01-21T23:22:17.275Z,9.00
2019-01-21T23:37:14.493Z,8.80
2019-01-21T23:39:44.657Z,9.10
2019-01-21T23:42:14.625Z,9.00
2019-01-21T23:44:44.880Z,8.80
2019-01-21T23:47:14.866Z,8.70
2019-01-21T23:49:44.921Z,8.30
2019-01-21T23:52:14.900Z,8.60
2019-01-21T23:54:44.855Z,8.50
2019-01-21T23:57:15.548Z,8.90
2019-01-21T23:59:45.752Z,9.00
